Time;durP1;ratioP1;P1;durP2;ratioP2;P2;SDS_P1;SDS_P2;PMS_P1;PMS_P2;Temp;Humidity;BMP_temperature;BMP_pressure;BME280_temperature;BME280_humidity;BME280_pressure;Samples;Min_cycle;Max_cycle;Signal;HPM_P1;HPM_P2
2021/08/08 00:01:04;;;;;;;14.93;13.65;;;14.70;99.90;;;;;;6155808;23;20048;-80
2021/08/08 00:03:30;;;;;;;14.75;11.23;;;14.80;99.90;;;;;;6165328;23;20039;-80
2021/08/08 00:05:56;;;;;;;12.00;10.82;;;14.70;99.90;;;;;;6190575;23;20158;-80
2021/08/08 00:08:25;;;;;;;12.25;11.05;;;14.70;99.90;;;;;;6152974;23;20012;-80
2021/08/08 00:10:51;;;;;;;14.70;13.30;;;14.80;99.90;;;;;;6193242;23;20023;-80
2021/08/08 00:13:17;;;;;;;9.02;8.05;;;14.80;99.90;;;;;;6191221;23;20013;-80
2021/08/08 00:15:43;;;;;;;15.65;14.25;;;14.80;99.90;;;;;;6165568;23;20017;-80
2021/08/08 00:18:09;;;;;;;11.80;10.88;;;14.70;99.90;;;;;;6191371;23;20023;-80
2021/08/08 00:20:35;;;;;;;10.40;8.35;;;14.80;99.90;;;;;;6192393;23;20025;-80
2021/08/08 00:23:02;;;;;;;14.75;13.60;;;14.80;99.90;;;;;;6155714;23;20017;-80
2021/08/08 00:25:28;;;;;;;17.08;15.40;;;14.80;99.90;;;;;;6130110;23;20021;-80
2021/08/08 00:27:54;;;;;;;20.15;18.52;;;14.80;99.90;;;;;;6131202;23;20021;-80
2021/08/08 00:30:19;;;;;;;12.63;11.65;;;14.80;99.90;;;;;;6130443;23;20028;-80
2021/08/08 00:32:46;;;;;;;12.52;11.23;;;14.80;99.90;;;;;;6132798;23;20087;-80
2021/08/08 00:35:12;;;;;;;14.13;12.93;;;14.80;99.90;;;;;;6158054;23;20452;-80
2021/08/08 00:37:42;;;;;;;14.13;11.45;;;14.70;99.90;;;;;;6158380;23;20020;-80
2021/08/08 00:40:09;;;;;;;11.05;9.98;;;14.80;99.90;;;;;;6167283;23;20109;-80
2021/08/08 00:42:35;;;;;;;12.93;11.88;;;14.70;99.90;;;;;;6194318;23;20059;-80
2021/08/08 00:45:00;;;;;;;12.45;11.27;;;14.70;99.90;;;;;;6166941;23;20017;-79
2021/08/08 00:47:26;;;;;;;13.25;11.93;;;14.60;99.90;;;;;;6157967;23;20019;-80
2021/08/08 00:49:52;;;;;;;15.55;13.93;;;14.60;99.90;;;;;;6157187;23;20507;-80
2021/08/08 00:52:18;;;;;;;13.98;11.90;;;14.60;99.90;;;;;;6133868;23;20086;-79
2021/08/08 00:54:44;;;;;;;18.05;16.23;;;14.60;99.90;;;;;;6157128;23;20023;-80
2021/08/08 00:57:11;;;;;;;16.67;15.38;;;14.60;99.90;;;;;;6132717;23;20091;-80
2021/08/08 00:59:37;;;;;;;17.52;15.75;;;14.60;99.90;;;;;;6157189;23;20459;-80
2021/08/08 01:02:05;;;;;;;16.55;14.30;;;14.60;99.90;;;;;;6181018;23;20091;-80
2021/08/08 01:04:35;;;;;;;25.67;22.02;;;14.60;99.90;;;;;;6166804;23;20502;-80
2021/08/08 01:07:21;;;;;;;13.35;12.05;;;14.60;99.90;;;;;;6157375;23;20315;-80
2021/08/08 01:09:54;;;;;;;11.25;10.20;;;14.60;99.90;;;;;;6166379;23;20077;-79
2021/08/08 01:12:21;;;;;;;11.35;10.18;;;14.60;99.90;;;;;;6166217;23;20499;-79
2021/08/08 01:14:48;;;;;;;24.58;20.10;;;14.70;99.90;;;;;;6183623;23;20113;-80
2021/08/08 01:17:15;;;;;;;14.68;13.32;;;14.70;99.90;;;;;;6184188;23;20021;-79
2021/08/08 01:20:03;;;;;;;14.88;13.65;;;14.70;99.90;;;;;;6167495;23;20017;-80
2021/08/08 01:22:31;;;;;;;9.40;8.55;;;14.80;99.90;;;;;;6190415;23;20017;-79
2021/08/08 01:24:59;;;;;;;11.35;10.43;;;14.80;99.90;;;;;;6182519;23;20027;-80
2021/08/08 01:27:27;;;;;;;13.98;12.63;;;14.80;99.90;;;;;;6184599;23;20116;-80
2021/08/08 01:29:54;;;;;;;17.67;16.17;;;14.80;99.90;;;;;;6183557;23;20013;-79
2021/08/08 01:32:21;;;;;;;16.92;15.25;;;14.80;99.90;;;;;;6182585;23;20051;-80
2021/08/08 01:34:48;;;;;;;12.98;11.52;;;14.80;99.90;;;;;;6156978;23;20013;-80
2021/08/08 01:37:19;;;;;;;14.88;12.13;;;14.90;99.90;;;;;;6164618;23;20013;-80
2021/08/08 01:39:54;;;;;;;18.00;15.52;;;14.90;99.90;;;;;;6166273;23;20013;-80
2021/08/08 01:42:21;;;;;;;9.70;8.75;;;15.00;99.90;;;;;;6194108;23;20044;-79
2021/08/08 01:44:50;;;;;;;13.02;11.73;;;15.00;99.90;;;;;;6184319;23;20048;-79
2021/08/08 01:47:21;;;;;;;16.50;14.95;;;15.00;99.90;;;;;;6193017;23;20009;-80
2021/08/08 01:49:48;;;;;;;13.93;12.23;;;14.90;99.90;;;;;;6194363;23;20480;-79
2021/08/08 01:52:14;;;;;;;17.17;15.52;;;14.80;99.90;;;;;;6194323;23;20013;-79
2021/08/08 01:54:40;;;;;;;10.32;9.32;;;14.90;99.90;;;;;;6193008;23;20017;-79
2021/08/08 01:57:10;;;;;;;12.68;11.13;;;15.00;99.90;;;;;;6157926;23;20072;-79
2021/08/08 01:59:37;;;;;;;15.02;13.73;;;15.00;99.90;;;;;;6183573;23;20013;-80
2021/08/08 02:02:14;;;;;;;12.73;11.07;;;15.00;99.90;;;;;;6183149;23;20044;-79
2021/08/08 02:04:41;;;;;;;9.23;7.55;;;15.00;99.90;;;;;;6166081;23;20040;-79
2021/08/08 02:07:15;;;;;;;10.20;8.73;;;15.00;99.90;;;;;;6186673;23;20407;-79
2021/08/08 02:09:42;;;;;;;13.23;9.48;;;15.10;99.90;;;;;;6156240;23;20009;-79
2021/08/08 02:12:09;;;;;;;21.77;19.58;;;15.00;99.90;;;;;;6156515;23;20008;-79
2021/08/08 02:14:35;;;;;;;21.30;18.45;;;15.00;99.90;;;;;;6193307;23;20036;-79
2021/08/08 02:17:01;;;;;;;17.38;14.90;;;15.10;99.90;;;;;;6166437;23;20017;-79
2021/08/08 02:19:27;;;;;;;26.27;23.98;;;15.10;99.90;;;;;;6166539;23;20023;-79
2021/08/08 02:21:54;;;;;;;23.85;21.60;;;15.20;99.90;;;;;;6182810;23;20374;-78
2021/08/08 02:24:19;;;;;;;14.45;13.02;;;15.10;99.90;;;;;;6182280;23;20457;-79
2021/08/08 02:26:45;;;;;;;14.93;11.38;;;15.20;99.90;;;;;;6166878;23;20016;-78
2021/08/08 02:29:11;;;;;;;20.15;18.35;;;15.20;99.90;;;;;;6155997;23;20436;-79
2021/08/08 02:31:42;;;;;;;22.55;19.10;;;15.30;99.90;;;;;;6193706;23;20040;-79
2021/08/08 02:34:09;;;;;;;16.50;14.95;;;15.30;99.90;;;;;;6166470;23;20020;-79
2021/08/08 02:36:36;;;;;;;17.38;15.75;;;15.30;99.90;;;;;;6192916;23;20012;-79
2021/08/08 02:39:02;;;;;;;22.45;20.33;;;15.20;99.90;;;;;;6154721;23;20366;-79
2021/08/08 02:41:28;;;;;;;17.83;13.27;;;15.30;99.90;;;;;;6191934;23;20141;-79
2021/08/08 02:43:55;;;;;;;22.63;20.48;;;15.30;99.90;;;;;;6182257;23;20045;-79
2021/08/08 02:46:21;;;;;;;22.88;20.60;;;15.20;99.90;;;;;;6182375;23;20009;-79
2021/08/08 02:48:47;;;;;;;19.75;18.08;;;15.20;99.90;;;;;;6182822;23;20020;-79
2021/08/08 02:51:13;;;;;;;18.60;15.57;;;15.10;99.90;;;;;;6192890;23;20017;-79
2021/08/08 02:53:39;;;;;;;13.70;12.32;;;15.10;99.90;;;;;;6183766;23;20648;-79
2021/08/08 02:56:05;;;;;;;18.52;16.88;;;15.10;99.90;;;;;;6156768;23;20013;-79
2021/08/08 02:58:31;;;;;;;13.90;12.50;;;15.10;99.90;;;;;;6166286;23;20021;-79
2021/08/08 03:00:57;;;;;;;16.63;15.13;;;15.20;99.90;;;;;;6166693;23;20090;-79
2021/08/08 03:03:23;;;;;;;20.42;17.42;;;15.20;99.90;;;;;;6181360;23;20048;-79
2021/08/08 03:05:49;;;;;;;16.40;14.90;;;15.10;99.90;;;;;;6165318;23;20067;-79
2021/08/08 03:08:15;;;;;;;30.52;27.77;;;15.20;99.90;;;;;;6153700;23;20456;-79
2021/08/08 03:10:41;;;;;;;29.17;26.45;;;15.20;99.90;;;;;;6193132;23;20017;-79
2021/08/08 03:13:07;;;;;;;30.00;27.55;;;15.10;99.90;;;;;;6182637;23;20425;-79
2021/08/08 03:15:33;;;;;;;37.72;34.28;;;15.20;99.90;;;;;;6164272;23;20046;-79
2021/08/08 03:17:59;;;;;;;25.15;23.05;;;15.30;99.90;;;;;;6192433;23;20386;-79
2021/08/08 03:20:25;;;;;;;21.30;19.00;;;15.20;99.90;;;;;;6193203;23;20017;-79
2021/08/08 03:22:51;;;;;;;34.80;31.92;;;15.20;99.90;;;;;;6161519;23;20020;-79
2021/08/08 03:25:17;;;;;;;35.05;31.48;;;15.10;99.90;;;;;;6192035;23;20192;-79
2021/08/08 03:27:45;;;;;;;32.90;29.73;;;15.10;99.90;;;;;;6156522;23;20446;-79
2021/08/08 03:30:11;;;;;;;29.55;27.08;;;15.20;99.90;;;;;;6191597;23;20086;-79
2021/08/08 03:32:37;;;;;;;19.70;17.98;;;15.20;99.90;;;;;;6164656;23;20013;-79
2021/08/08 03:35:04;;;;;;;30.20;27.48;;;15.20;99.90;;;;;;6192522;23;20024;-79
2021/08/08 03:37:30;;;;;;;20.60;18.70;;;15.20;99.90;;;;;;6155680;23;20079;-79
2021/08/08 03:39:55;;;;;;;30.23;27.17;;;15.30;99.90;;;;;;6181417;23;20421;-79
2021/08/08 03:42:21;;;;;;;35.55;31.92;;;15.30;99.90;;;;;;6165750;23;20013;-79
2021/08/08 03:44:47;;;;;;;19.88;18.17;;;15.30;99.90;;;;;;6192333;23;20481;-79
2021/08/08 03:47:13;;;;;;;23.73;21.65;;;15.30;99.90;;;;;;6182012;23;20290;-79
2021/08/08 03:49:39;;;;;;;48.35;44.10;;;15.30;99.90;;;;;;6183310;23;20032;-79
2021/08/08 03:52:05;;;;;;;24.55;22.13;;;15.40;99.90;;;;;;6155591;23;20480;-79
2021/08/08 03:54:30;;;;;;;23.65;21.70;;;15.30;99.90;;;;;;6181879;23;20009;-79
2021/08/08 03:56:56;;;;;;;37.92;34.88;;;15.30;99.90;;;;;;6181903;23;20013;-79
2021/08/08 03:59:22;;;;;;;40.20;36.70;;;15.30;99.90;;;;;;6155980;23;20390;-79
2021/08/08 04:01:47;;;;;;;30.23;27.10;;;15.10;99.90;;;;;;6154678;23;20012;-79
2021/08/08 04:04:13;;;;;;;35.90;32.97;;;15.10;99.90;;;;;;6131302;23;20420;-78
2021/08/08 04:06:39;;;;;;;36.45;33.50;;;15.10;99.90;;;;;;6162627;23;20131;-79
2021/08/08 04:09:04;;;;;;;28.08;25.75;;;15.10;99.90;;;;;;6181868;23;20017;-79
2021/08/08 04:11:30;;;;;;;25.20;22.85;;;15.00;99.90;;;;;;6182691;23;20437;-79
2021/08/08 04:13:56;;;;;;;25.00;22.77;;;15.00;99.90;;;;;;6190737;23;20015;-79
2021/08/08 04:16:22;;;;;;;34.10;30.77;;;15.00;99.90;;;;;;6192661;23;20075;-79
2021/08/08 04:18:48;;;;;;;35.90;32.72;;;15.00;99.90;;;;;;6190708;23;20009;-79
2021/08/08 04:21:14;;;;;;;44.40;39.97;;;14.90;99.90;;;;;;6192849;23;20016;-79
2021/08/08 04:23:40;;;;;;;40.55;36.75;;;14.90;99.90;;;;;;6128895;23;20562;-78
2021/08/08 04:26:06;;;;;;;30.55;27.88;;;15.00;99.90;;;;;;6192590;23;20013;-78
2021/08/08 04:28:32;;;;;;;31.80;29.02;;;15.00;99.90;;;;;;6192978;23;20076;-78
2021/08/08 04:30:58;;;;;;;24.40;22.23;;;15.10;99.90;;;;;;6155335;23;20335;-78
2021/08/08 04:33:23;;;;;;;29.20;26.65;;;15.10;99.90;;;;;;6191113;23;20008;-78
2021/08/08 04:35:51;;;;;;;30.50;27.85;;;15.10;99.90;;;;;;6182822;23;20009;-78
2021/08/08 04:38:17;;;;;;;24.50;22.13;;;15.10;99.90;;;;;;6179537;23;20310;-78
2021/08/08 04:40:43;;;;;;;32.85;29.85;;;15.00;99.90;;;;;;6182021;23;20013;-78
2021/08/08 04:43:08;;;;;;;32.05;29.20;;;15.10;99.90;;;;;;6180595;23;20017;-78
2021/08/08 04:45:34;;;;;;;37.15;33.88;;;15.20;99.90;;;;;;6163265;23;20031;-78
2021/08/08 04:48:00;;;;;;;30.08;27.13;;;15.20;99.90;;;;;;6155405;23;20127;-79
2021/08/08 04:50:26;;;;;;;27.58;24.95;;;15.20;99.90;;;;;;6182258;23;20020;-79
2021/08/08 04:52:52;;;;;;;25.42;22.85;;;15.30;99.90;;;;;;6153781;23;20052;-78
2021/08/08 04:55:23;;;;;;;26.52;23.58;;;15.40;99.90;;;;;;6163300;23;20025;-81
2021/08/08 04:57:48;;;;;;;29.92;27.10;;;15.40;99.90;;;;;;6164271;23;20017;-79
2021/08/08 05:00:16;;;;;;;34.88;31.30;;;15.40;99.90;;;;;;6180119;23;20013;-78
2021/08/08 05:02:48;;;;;;;41.60;37.67;;;15.50;99.90;;;;;;6191195;23;20009;-80
2021/08/08 05:05:16;;;;;;;39.70;36.13;;;15.70;99.90;;;;;;6190700;23;20021;-80
2021/08/08 05:07:44;;;;;;;30.63;27.17;;;15.80;99.90;;;;;;6153886;23;20020;-80
2021/08/08 05:10:13;;;;;;;38.70;34.78;;;15.90;99.90;;;;;;6154104;23;20013;-79
2021/08/08 05:12:40;;;;;;;35.50;31.83;;;16.10;99.90;;;;;;6154109;23;20036;-79
2021/08/08 05:15:07;;;;;;;54.47;48.30;;;16.10;99.90;;;;;;6164728;23;20073;-79
2021/08/08 05:17:33;;;;;;;34.88;29.55;;;16.20;99.90;;;;;;6130163;23;20009;-78
2021/08/08 05:19:59;;;;;;;49.22;44.15;;;16.30;99.90;;;;;;6192471;23;20267;-78
2021/08/08 05:22:25;;;;;;;30.70;27.73;;;16.20;99.90;;;;;;6183671;23;20313;-78
2021/08/08 05:24:51;;;;;;;22.83;20.92;;;16.30;99.90;;;;;;6183032;23;20017;-79
2021/08/08 05:27:17;;;;;;;47.08;43.03;;;16.30;99.90;;;;;;6183752;23;20071;-78
2021/08/08 05:29:48;;;;;;;40.20;36.78;;;16.20;99.90;;;;;;6193891;23;20150;-79
2021/08/08 05:32:16;;;;;;;34.05;30.67;;;16.30;99.90;;;;;;6167702;23;20383;-80
2021/08/08 05:34:42;;;;;;;33.78;30.77;;;16.30;99.90;;;;;;6167392;23;20016;-80
2021/08/08 05:37:08;;;;;;;50.67;45.40;;;16.50;99.90;;;;;;6167776;23;20472;-80
2021/08/08 05:39:35;;;;;;;35.25;31.73;;;16.50;99.90;;;;;;6156126;23;20095;-82
2021/08/08 05:42:04;;;;;;;45.50;41.28;;;16.60;99.90;;;;;;6158142;23;20009;-84
2021/08/08 05:44:30;;;;;;;48.70;44.08;;;16.70;99.90;;;;;;6157550;23;20068;-81
2021/08/08 05:46:55;;;;;;;34.13;31.30;;;16.80;99.90;;;;;;6193967;23;20020;-80
2021/08/08 05:49:21;;;;;;;61.90;56.08;;;16.90;99.90;;;;;;6193468;23;20032;-80
2021/08/08 05:51:47;;;;;;;42.85;38.63;;;17.00;99.90;;;;;;6193475;23;20431;-81
2021/08/08 05:54:13;;;;;;;41.85;38.03;;;17.10;99.90;;;;;;6185478;23;20020;-78
2021/08/08 05:56:38;;;;;;;64.03;57.83;;;17.30;99.90;;;;;;6194352;23;20048;-79
2021/08/08 05:59:04;;;;;;;67.75;60.50;;;17.40;99.90;;;;;;6156691;23;20306;-79
2021/08/08 06:01:32;;;;;;;261.73;210.13;;;17.70;99.90;;;;;;6157440;23;20096;-81
2021/08/08 06:03:58;;;;;;;72.35;65.15;;;17.90;99.90;;;;;;6193332;23;20021;-82
2021/08/08 06:06:26;;;;;;;55.95;50.70;;;18.20;99.90;;;;;;6191185;23;20009;-84
2021/08/08 06:08:53;;;;;;;126.38;112.65;;;18.40;99.90;;;;;;6181772;23;20656;-83
2021/08/08 06:11:19;;;;;;;65.60;51.72;;;18.30;99.90;;;;;;6166537;23;20017;-81
2021/08/08 06:13:44;;;;;;;396.90;304.75;;;18.30;99.90;;;;;;6182588;23;20013;-79
2021/08/08 06:16:10;;;;;;;90.43;80.70;;;18.20;99.90;;;;;;6192687;23;20041;-80
2021/08/08 06:18:37;;;;;;;106.82;84.25;;;18.10;99.90;;;;;;6182361;23;20100;-82
2021/08/08 06:21:03;;;;;;;132.38;105.97;;;17.90;99.90;;;;;;6194280;23;20013;-80
2021/08/08 06:23:30;;;;;;;105.57;90.95;;;17.80;99.90;;;;;;6182002;23;20878;-83
2021/08/08 06:25:55;;;;;;;213.07;162.18;;;17.70;99.90;;;;;;6183509;23;20009;-81
2021/08/08 06:28:21;;;;;;;89.00;78.07;;;17.60;99.90;;;;;;6166782;23;20100;-82
2021/08/08 06:30:47;;;;;;;265.52;204.55;;;17.50;99.90;;;;;;6166680;23;20019;-83
2021/08/08 06:33:15;;;;;;;345.65;293.55;;;17.40;99.90;;;;;;6183119;23;20270;-80
2021/08/08 06:35:41;;;;;;;78.18;70.82;;;17.30;99.90;;;;;;6193314;23;20472;-81
2021/08/08 06:38:06;;;;;;;84.07;75.65;;;17.30;99.90;;;;;;6156099;23;20024;-80
2021/08/08 06:40:32;;;;;;;93.63;84.28;;;17.30;99.90;;;;;;6193018;23;20027;-80
2021/08/08 06:43:00;;;;;;;95.57;85.57;;;17.20;99.90;;;;;;6193008;23;20023;-80
2021/08/08 06:45:26;;;;;;;115.43;100.00;;;17.30;99.90;;;;;;6155431;23;20024;-82
2021/08/08 06:47:51;;;;;;;79.63;71.43;;;17.30;99.90;;;;;;6156114;23;20024;-81
2021/08/08 06:50:17;;;;;;;68.47;62.33;;;17.40;99.90;;;;;;6155433;23;20025;-80
2021/08/08 06:52:43;;;;;;;86.53;77.30;;;17.50;99.90;;;;;;6155006;23;20048;-79
2021/08/08 06:55:09;;;;;;;119.80;103.85;;;17.40;99.90;;;;;;6181902;23;20405;-79
2021/08/08 06:57:35;;;;;;;87.72;78.28;;;17.50;99.90;;;;;;6181349;23;20442;-78
2021/08/08 07:00:04;;;;;;;119.50;95.35;;;17.50;99.90;;;;;;6166431;23;20016;-80
2021/08/08 07:02:29;;;;;;;77.53;70.10;;;17.40;99.90;;;;;;6166362;23;20302;-80
2021/08/08 07:04:55;;;;;;;96.35;83.38;;;17.50;99.90;;;;;;6181992;23;20430;-80
2021/08/08 07:07:21;;;;;;;122.78;94.07;;;17.70;99.90;;;;;;6130655;23;20013;-81
2021/08/08 07:09:50;;;;;;;66.70;60.17;;;17.90;99.90;;;;;;6153344;23;20486;-83
2021/08/08 07:12:16;;;;;;;129.63;99.53;;;18.00;99.90;;;;;;6182474;23;20009;-80
2021/08/08 07:14:42;;;;;;;117.22;104.57;;;17.90;99.90;;;;;;6164334;23;20040;-81
2021/08/08 07:17:08;;;;;;;90.43;81.38;;;18.00;99.90;;;;;;6190077;23;20437;-83
2021/08/08 07:19:34;;;;;;;62.25;55.75;;;18.10;99.90;;;;;;6155766;23;20095;-78
2021/08/08 07:22:00;;;;;;;141.23;126.25;;;18.10;99.90;;;;;;6155967;23;20417;-79
2021/08/08 07:24:26;;;;;;;105.57;90.50;;;17.90;99.90;;;;;;6181035;23;20047;-80
2021/08/08 07:26:52;;;;;;;88.53;79.32;;;17.70;99.90;;;;;;6154960;23;20599;-80
2021/08/08 07:29:18;;;;;;;116.38;103.63;;;17.60;99.90;;;;;;6191200;23;20035;-79
2021/08/08 07:31:45;;;;;;;108.40;79.15;;;17.60;99.90;;;;;;6152477;23;20317;-81
2021/08/08 07:34:11;;;;;;;115.72;94.68;;;17.50;99.90;;;;;;6153867;23;20366;-80
2021/08/08 07:36:37;;;;;;;77.85;64.03;;;17.40;99.90;;;;;;6151411;23;20017;-81
2021/08/08 07:39:03;;;;;;;90.32;75.60;;;17.30;99.90;;;;;;6160056;23;20013;-80
2021/08/08 07:41:29;;;;;;;76.85;69.65;;;17.20;99.90;;;;;;6165875;23;20024;-80
2021/08/08 07:43:55;;;;;;;88.30;79.22;;;17.30;99.90;;;;;;6183454;23;20023;-80
2021/08/08 07:46:20;;;;;;;47.40;42.95;;;17.50;99.90;;;;;;6193837;23;20009;-80
2021/08/08 07:48:47;;;;;;;85.93;75.57;;;17.50;99.90;;;;;;6193359;23;20065;-80
2021/08/08 07:51:13;;;;;;;63.92;56.95;;;17.70;99.90;;;;;;6166780;23;20009;-80
2021/08/08 07:53:42;;;;;;;114.25;94.93;;;17.80;99.90;;;;;;6189685;23;20095;-80
2021/08/08 07:56:08;;;;;;;129.60;99.82;;;18.00;99.90;;;;;;6193687;23;20384;-80
2021/08/08 07:58:34;;;;;;;124.93;101.07;;;18.10;99.90;;;;;;6193235;23;20099;-80
2021/08/08 08:00:59;;;;;;;182.90;139.93;;;17.90;99.90;;;;;;6167096;23;20016;-80
2021/08/08 08:03:25;;;;;;;102.50;87.32;;;17.90;99.90;;;;;;6131878;23;20041;-80
2021/08/08 08:05:51;;;;;;;72.07;62.85;;;17.90;99.90;;;;;;6167065;23;20020;-80
2021/08/08 08:08:28;;;;;;;159.73;124.07;;;18.10;99.90;;;;;;6155637;23;20075;-80
2021/08/08 08:10:57;;;;;;;124.45;97.10;;;18.20;99.90;;;;;;6157571;23;20020;-80
2021/08/08 08:13:23;;;;;;;148.02;115.78;;;18.20;99.90;;;;;;6193211;23;20009;-81
2021/08/08 08:15:49;;;;;;;107.78;84.85;;;18.20;99.90;;;;;;6193434;23;20360;-80
2021/08/08 08:18:14;;;;;;;89.07;74.95;;;18.10;99.90;;;;;;6131955;23;20340;-80
2021/08/08 08:20:42;;;;;;;103.22;88.63;;;18.10;99.90;;;;;;6166620;23;20020;-80
2021/08/08 08:23:07;;;;;;;152.95;121.88;;;18.00;99.90;;;;;;6166381;23;20408;-80
2021/08/08 08:25:34;;;;;;;76.80;60.03;;;17.90;99.90;;;;;;6182545;23;20021;-79
2021/08/08 08:28:00;;;;;;;138.23;113.53;;;17.80;99.90;;;;;;6193380;23;20019;-80
2021/08/08 08:30:25;;;;;;;85.13;63.53;;;17.80;99.90;;;;;;6166814;23;20020;-79
2021/08/08 08:32:51;;;;;;;111.63;81.38;;;17.80;99.90;;;;;;6182914;23;20013;-80
2021/08/08 08:35:17;;;;;;;96.63;83.03;;;17.70;99.90;;;;;;6166828;23;20043;-80
2021/08/08 08:37:43;;;;;;;436.17;284.75;;;17.60;99.90;;;;;;6182478;23;20342;-80
2021/08/08 08:40:09;;;;;;;104.20;79.85;;;17.60;99.90;;;;;;6184646;23;20025;-80
2021/08/08 08:42:58;;;;;;;109.13;85.20;;;17.80;99.90;;;;;;6166917;23;20100;-80
2021/08/08 08:45:24;;;;;;;72.85;64.90;;;17.90;99.90;;;;;;6180656;23;20116;-80
2021/08/08 08:47:51;;;;;;;101.70;84.47;;;18.00;99.90;;;;;;6183104;23;20024;-80
2021/08/08 08:50:20;;;;;;;81.60;63.70;;;18.00;99.90;;;;;;6192829;23;20009;-80
2021/08/08 08:52:47;;;;;;;103.22;81.85;;;18.10;99.90;;;;;;6167007;23;20016;-80
2021/08/08 08:55:13;;;;;;;82.70;64.60;;;18.10;99.90;;;;;;6159587;23;20358;-80
2021/08/08 08:57:41;;;;;;;105.75;86.07;;;18.20;99.90;;;;;;6185099;23;20094;-80
2021/08/08 09:00:08;;;;;;;108.80;84.07;;;18.40;99.90;;;;;;6144360;23;20013;-80
2021/08/08 09:02:34;;;;;;;126.22;101.78;;;18.40;99.90;;;;;;6133496;23;20023;-80
2021/08/08 09:05:01;;;;;;;104.43;83.68;;;18.40;99.90;;;;;;6158271;23;20127;-81
2021/08/08 09:07:30;;;;;;;108.97;81.60;;;18.50;99.90;;;;;;6162138;23;20017;-81
2021/08/08 09:09:57;;;;;;;141.82;112.32;;;18.50;99.90;;;;;;6186640;23;20013;-80
2021/08/08 09:12:25;;;;;;;147.82;123.68;;;18.50;99.90;;;;;;6158609;23;20084;-80
2021/08/08 09:15:01;;;;;;;145.07;106.18;;;18.60;99.90;;;;;;6158496;23;20315;-80
2021/08/08 09:17:27;;;;;;;111.95;86.13;;;18.60;99.90;;;;;;6168709;23;20282;-80
2021/08/08 09:20:02;;;;;;;130.02;106.90;;;18.50;99.90;;;;;;6158017;23;20024;-81
2021/08/08 09:22:29;;;;;;;110.32;92.43;;;18.50;99.90;;;;;;6168430;23;20016;-81
2021/08/08 09:24:55;;;;;;;118.82;99.32;;;18.50;99.90;;;;;;6186186;23;20028;-81
2021/08/08 09:27:31;;;;;;;105.68;86.63;;;18.50;99.90;;;;;;6194939;23;20021;-80
2021/08/08 09:29:56;;;;;;;119.07;91.97;;;18.40;99.90;;;;;;6158209;23;20096;-80
2021/08/08 09:32:32;;;;;;;126.88;98.30;;;18.40;99.90;;;;;;6194511;23;20021;-80
2021/08/08 09:35:06;;;;;;;149.35;121.63;;;18.40;99.90;;;;;;6194597;23;20078;-80
2021/08/08 09:37:32;;;;;;;154.07;130.40;;;18.50;99.90;;;;;;6193312;23;20486;-80
2021/08/08 09:39:58;;;;;;;96.18;74.85;;;18.70;99.90;;;;;;6185946;23;20048;-80
2021/08/08 09:42:31;;;;;;;99.65;80.65;;;18.50;99.90;;;;;;6158245;23;20017;-80
2021/08/08 09:45:05;;;;;;;119.53;96.32;;;18.40;99.90;;;;;;6194418;23;20071;-79
2021/08/08 09:47:43;;;;;;;266.05;199.00;;;18.30;99.90;;;;;;6195004;23;20013;-80
2021/08/08 09:50:21;;;;;;;122.07;99.15;;;18.40;99.90;;;;;;6158166;23;20016;-80
2021/08/08 09:52:52;;;;;;;394.90;257.10;;;18.30;99.90;;;;;;6158049;23;20013;-80
2021/08/08 09:55:22;;;;;;;122.78;97.70;;;18.20;99.90;;;;;;6158920;23;20084;-80
2021/08/08 09:57:48;;;;;;;198.48;158.43;;;18.20;99.90;;;;;;6168467;23;20095;-80
2021/08/08 10:00:24;;;;;;;121.10;96.15;;;18.10;99.90;;;;;;6158014;23;20039;-79
2021/08/08 10:02:50;;;;;;;125.78;105.88;;;18.20;99.90;;;;;;6167827;23;20349;-80
2021/08/08 10:05:16;;;;;;;99.78;88.03;;;18.30;99.90;;;;;;6194178;23;20074;-80
2021/08/08 10:07:43;;;;;;;111.47;86.53;;;18.50;99.90;;;;;;6186545;23;20084;-80
2021/08/08 10:10:15;;;;;;;181.93;138.32;;;18.80;99.90;;;;;;6193981;23;20017;-80
2021/08/08 10:12:44;;;;;;;224.35;182.45;;;19.00;99.90;;;;;;6158135;23;20033;-80
2021/08/08 10:15:11;;;;;;;185.00;136.35;;;19.10;99.90;;;;;;6194288;23;20107;-80
2021/08/08 10:17:38;;;;;;;147.30;102.25;;;19.30;99.90;;;;;;6168313;23;20388;-80
2021/08/08 10:20:05;;;;;;;201.63;139.40;;;19.70;99.90;;;;;;6194379;23;20013;-80
2021/08/08 10:22:34;;;;;;;153.98;114.53;;;19.70;99.90;;;;;;6168142;23;20080;-80
2021/08/08 10:25:00;;;;;;;184.02;132.55;;;19.80;99.90;;;;;;6160311;23;20021;-80
2021/08/08 10:27:30;;;;;;;176.98;122.15;;;19.90;99.90;;;;;;6158393;23;20028;-81
2021/08/08 10:29:58;;;;;;;166.40;115.00;;;20.00;99.90;;;;;;6182804;23;20352;-80
2021/08/08 10:32:25;;;;;;;150.63;107.15;;;20.10;99.90;;;;;;6184500;23;20370;-80
2021/08/08 10:34:52;;;;;;;145.90;102.43;;;20.10;99.90;;;;;;6194069;23;20337;-80
2021/08/08 10:37:22;;;;;;;130.95;94.43;;;20.40;99.90;;;;;;6194114;23;20013;-80
2021/08/08 10:39:49;;;;;;;116.40;90.63;;;20.60;99.90;;;;;;6186985;23;20017;-80
2021/08/08 10:42:15;;;;;;;183.05;138.70;;;20.70;99.90;;;;;;6157275;23;20061;-80
2021/08/08 10:44:49;;;;;;;149.95;106.53;;;20.90;99.90;;;;;;6167384;23;20392;-80
2021/08/08 10:47:32;;;;;;;119.95;90.93;;;21.00;99.90;;;;;;6194288;23;20047;-80
2021/08/08 10:50:14;;;;;;;186.32;135.05;;;21.20;99.90;;;;;;6184017;23;20031;-80
2021/08/08 10:52:41;;;;;;;195.93;137.30;;;21.30;99.90;;;;;;6167176;23;20083;-80
2021/08/08 10:55:08;;;;;;;201.88;141.02;;;21.30;99.90;;;;;;6156212;23;20017;-80
2021/08/08 10:57:43;;;;;;;284.73;206.57;;;21.00;99.90;;;;;;6167801;23;20017;-80
2021/08/08 11:00:18;;;;;;;265.00;180.27;;;21.10;99.90;;;;;;6184108;23;20337;-80
2021/08/08 11:02:44;;;;;;;646.85;443.15;;;20.80;99.90;;;;;;6157490;23;20013;-81
2021/08/08 11:05:18;;;;;;;183.95;131.57;;;20.50;99.90;;;;;;6167398;23;20017;-80
2021/08/08 11:07:48;;;;;;;646.95;457.13;;;20.50;99.90;;;;;;6185675;23;20013;-80
2021/08/08 11:10:27;;;;;;;190.60;129.10;;;20.70;99.90;;;;;;6159405;23;20314;-80
2021/08/08 11:12:53;;;;;;;164.80;122.70;;;20.50;99.90;;;;;;6183764;23;20035;-80
2021/08/08 11:15:30;;;;;;;775.60;558.47;;;20.40;99.90;;;;;;6193299;23;20017;-80
2021/08/08 11:17:58;;;;;;;313.73;219.43;;;20.10;99.90;;;;;;6193963;23;20430;-80
2021/08/08 11:20:28;;;;;;;176.50;139.93;;;20.00;99.90;;;;;;6183915;23;20013;-80
2021/08/08 11:22:58;;;;;;;172.73;123.75;;;20.00;99.90;;;;;;6157030;23;20019;-80
2021/08/08 11:25:26;;;;;;;127.25;100.13;;;20.10;99.90;;;;;;6158282;23;20017;-80
2021/08/08 11:27:54;;;;;;;152.75;107.13;;;20.50;99.90;;;;;;6132580;23;20023;-80
2021/08/08 11:30:23;;;;;;;516.15;381.65;;;20.70;99.90;;;;;;6183877;23;20047;-80
2021/08/08 11:32:54;;;;;;;174.15;140.57;;;20.60;99.90;;;;;;6167382;23;20336;-81
2021/08/08 11:35:27;;;;;;;160.13;128.07;;;20.60;99.90;;;;;;6167046;23;20079;-81
2021/08/08 11:37:53;;;;;;;170.25;113.03;;;20.60;99.90;;;;;;6192962;23;20041;-81
2021/08/08 11:40:23;;;;;;;205.77;157.23;;;21.00;99.90;;;;;;6183271;23;20344;-81
2021/08/08 11:43:04;;;;;;;310.48;218.82;;;21.30;99.90;;;;;;6193749;23;20120;-81
2021/08/08 11:45:49;;;;;;;320.70;231.70;;;21.40;99.90;;;;;;6193326;23;20017;-81
2021/08/08 11:48:19;;;;;;;260.80;190.32;;;21.60;99.90;;;;;;6193608;23;20013;-80
2021/08/08 11:50:59;;;;;;;192.45;126.13;;;21.90;99.90;;;;;;6157190;23;20421;-81
2021/08/08 11:53:33;;;;;;;185.45;129.35;;;22.20;99.90;;;;;;6165906;23;20044;-81
2021/08/08 11:56:17;;;;;;;245.80;176.63;;;22.20;99.90;;;;;;6193785;23;20024;-81
2021/08/08 11:58:48;;;;;;;199.98;144.38;;;22.20;99.90;;;;;;6194001;23;20009;-81
2021/08/08 12:01:19;;;;;;;152.25;103.57;;;22.20;99.90;;;;;;6158248;23;20287;-81
2021/08/08 12:03:46;;;;;;;281.50;191.98;;;21.90;99.90;;;;;;6168356;23;20421;-81
2021/08/08 12:06:21;;;;;;;455.08;321.58;;;21.70;99.90;;;;;;6168804;23;20017;-81
2021/08/08 12:08:52;;;;;;;295.90;230.98;;;21.40;99.90;;;;;;6185248;23;20087;-81
2021/08/08 12:11:20;;;;;;;269.10;194.30;;;21.00;99.90;;;;;;6167488;23;20456;-81
2021/08/08 12:14:07;;;;;;;276.25;195.20;;;21.00;99.90;;;;;;6167472;23;20009;-81
2021/08/08 12:16:35;;;;;;;500.08;378.08;;;21.10;99.90;;;;;;6167430;23;20017;-81
2021/08/08 12:19:02;;;;;;;236.88;173.02;;;21.10;99.90;;;;;;6183427;23;20013;-81
2021/08/08 12:21:39;;;;;;;479.90;354.92;;;21.20;99.90;;;;;;6157543;23;20005;-81
2021/08/08 12:24:11;;;;;;;649.05;483.23;;;21.10;99.90;;;;;;6189718;23;20456;-81